Time;durP1;ratioP1;P1;durP2;ratioP2;P2;SDS_P1;SDS_P2;PMS_P1;PMS_P2;Temp;Humidity;BMP_temperature;BMP_pressure;BME280_temperature;BME280_humidity;BME280_pressure;Samples;Min_cycle;Max_cycle;Signal;HPM_P1;HPM_P2
2021/08/21 00:01:27;;;;;;;5.15;4.65;;;18.00;77.70;;;;;;6231040;28;20471;-78
2021/08/21 00:04:29;;;;;;;5.32;4.15;;;17.90;78.00;;;;;;6230559;28;20471;-79
2021/08/21 00:07:31;;;;;;;6.20;3.70;;;17.80;77.90;;;;;;6230268;28;20452;-79
2021/08/21 00:10:35;;;;;;;5.40;4.30;;;17.80;77.80;;;;;;6230023;28;20436;-79
2021/08/21 00:13:37;;;;;;;7.47;5.13;;;17.80;78.00;;;;;;6248022;28;20594;-79
2021/08/21 00:16:39;;;;;;;6.18;4.82;;;17.70;78.30;;;;;;6253864;28;20446;-79
2021/08/21 00:19:41;;;;;;;5.63;4.63;;;17.80;78.30;;;;;;6254373;28;20462;-79
2021/08/21 00:22:43;;;;;;;6.07;4.00;;;17.80;78.00;;;;;;6254551;28;20877;-78
2021/08/21 00:25:46;;;;;;;4.50;4.10;;;17.70;77.80;;;;;;6253904;28;21051;-78
2021/08/21 00:28:48;;;;;;;5.88;4.07;;;17.80;78.00;;;;;;6254210;28;20532;-79
2021/08/21 00:31:50;;;;;;;4.72;4.20;;;17.80;77.90;;;;;;6254262;28;20416;-79
2021/08/21 00:34:51;;;;;;;5.25;3.95;;;17.80;77.80;;;;;;6253492;28;20485;-79
2021/08/21 00:37:53;;;;;;;5.45;4.78;;;17.90;77.60;;;;;;6254585;28;20514;-79
2021/08/21 00:40:56;;;;;;;7.03;5.13;;;18.00;78.30;;;;;;6253339;28;20496;-80
2021/08/21 00:43:58;;;;;;;6.00;5.20;;;17.90;77.50;;;;;;6254233;28;20450;-80
2021/08/21 00:47:06;;;;;;;7.47;4.87;;;17.80;77.90;;;;;;6255909;28;20435;-78
2021/08/21 00:50:08;;;;;;;4.57;4.18;;;17.80;78.10;;;;;;6258078;28;20466;-79
2021/08/21 00:53:10;;;;;;;9.90;5.18;;;17.70;78.10;;;;;;6254451;28;20586;-79
2021/08/21 00:56:14;;;;;;;5.97;4.57;;;17.60;78.10;;;;;;6253919;28;20481;-79
2021/08/21 00:59:16;;;;;;;5.28;4.43;;;17.60;78.30;;;;;;6253824;28;20470;-80
2021/08/21 01:02:19;;;;;;;7.78;4.72;;;17.60;78.10;;;;;;6254408;28;20439;-80
2021/08/21 01:05:21;;;;;;;6.47;4.63;;;17.60;78.00;;;;;;6253317;28;20498;-80
2021/08/21 01:08:23;;;;;;;7.60;4.78;;;17.60;77.70;;;;;;6253242;28;20832;-79
2021/08/21 01:11:27;;;;;;;8.15;4.88;;;17.60;78.00;;;;;;6252581;28;20441;-79
2021/08/21 01:14:28;;;;;;;6.82;5.50;;;17.50;78.20;;;;;;6252442;28;20469;-80
2021/08/21 01:17:31;;;;;;;7.15;4.75;;;17.50;78.10;;;;;;6252945;28;20450;-80
2021/08/21 01:20:33;;;;;;;5.20;4.40;;;17.50;78.40;;;;;;6252854;28;20516;-80
2021/08/21 01:23:37;;;;;;;8.88;4.82;;;17.40;78.10;;;;;;6252311;28;20545;-79
2021/08/21 01:26:50;;;;;;;7.10;4.35;;;17.40;78.50;;;;;;6251819;28;20474;-80
2021/08/21 01:29:53;;;;;;;8.73;4.88;;;17.40;78.50;;;;;;6252245;28;20431;-80
2021/08/21 01:32:55;;;;;;;5.32;4.82;;;17.30;78.80;;;;;;6251652;28;20632;-80
2021/08/21 01:35:56;;;;;;;7.65;5.40;;;17.30;79.50;;;;;;6251169;28;21054;-79
2021/08/21 01:38:58;;;;;;;5.47;4.85;;;17.30;78.50;;;;;;6251204;28;20437;-79
2021/08/21 01:42:03;;;;;;;6.50;4.93;;;17.30;79.00;;;;;;6251767;28;20462;-80
2021/08/21 01:45:09;;;;;;;6.50;4.80;;;17.20;78.70;;;;;;6250153;28;20527;-80
2021/08/21 01:48:11;;;;;;;7.72;5.00;;;17.20;79.20;;;;;;6252467;28;20471;-80
2021/08/21 01:51:13;;;;;;;7.65;4.50;;;17.10;78.90;;;;;;6252159;28;20552;-81
2021/08/21 01:54:16;;;;;;;5.87;5.10;;;17.10;78.90;;;;;;6252661;28;20538;-80
2021/08/21 01:57:19;;;;;;;5.68;5.07;;;17.10;79.10;;;;;;6252736;28;21105;-79
2021/08/21 02:00:27;;;;;;;6.55;4.82;;;17.10;78.80;;;;;;6251659;28;20579;-80
2021/08/21 02:03:30;;;;;;;6.03;5.03;;;17.00;79.00;;;;;;6252097;28;20559;-80
2021/08/21 02:06:32;;;;;;;9.45;5.00;;;16.90;79.00;;;;;;6251837;28;20893;-79
2021/08/21 02:09:34;;;;;;;5.13;4.32;;;17.00;78.90;;;;;;6251355;28;20458;-80
2021/08/21 02:12:37;;;;;;;5.60;5.00;;;16.90;78.80;;;;;;6251612;28;20433;-79
2021/08/21 02:15:39;;;;;;;5.77;4.67;;;16.90;78.80;;;;;;6251332;28;21054;-78
2021/08/21 02:18:41;;;;;;;6.45;5.07;;;16.90;79.10;;;;;;6252231;28;20443;-79
2021/08/21 02:21:43;;;;;;;5.20;4.43;;;16.90;78.40;;;;;;6251938;28;20430;-79
2021/08/21 02:24:51;;;;;;;5.50;4.68;;;16.90;78.80;;;;;;6251085;28;20450;-78
2021/08/21 02:27:59;;;;;;;6.72;4.93;;;16.90;79.10;;;;;;6251413;28;20471;-79
2021/08/21 02:31:01;;;;;;;7.73;4.80;;;16.90;78.50;;;;;;6250908;28;20482;-78
2021/08/21 02:34:04;;;;;;;5.65;4.78;;;16.90;78.60;;;;;;6256033;28;20533;-79
2021/08/21 02:37:06;;;;;;;6.60;5.35;;;16.80;78.20;;;;;;6256509;28;20497;-78
2021/08/21 02:40:09;;;;;;;10.57;5.20;;;16.80;79.00;;;;;;6256097;28;20899;-80
2021/08/21 02:43:13;;;;;;;5.53;5.03;;;16.80;79.30;;;;;;6255538;28;20535;-78
2021/08/21 02:46:15;;;;;;;5.30;4.80;;;16.70;79.30;;;;;;6255422;28;20504;-79
2021/08/21 02:49:17;;;;;;;5.80;5.20;;;16.80;79.90;;;;;;6255636;28;20445;-79
2021/08/21 02:52:19;;;;;;;5.40;4.90;;;16.70;79.10;;;;;;6256358;28;20426;-78
2021/08/21 02:55:21;;;;;;;7.00;4.75;;;16.70;79.00;;;;;;6255259;28;20438;-78
2021/08/21 02:58:24;;;;;;;7.40;5.55;;;16.70;79.60;;;;;;6256074;28;20971;-79
2021/08/21 03:01:26;;;;;;;7.15;5.18;;;16.70;79.00;;;;;;6255079;28;20469;-78
2021/08/21 03:04:28;;;;;;;5.57;4.88;;;16.60;79.10;;;;;;6255188;28;20507;-78
2021/08/21 03:07:30;;;;;;;5.47;4.75;;;16.60;79.10;;;;;;6255320;28;20426;-79
2021/08/21 03:10:32;;;;;;;6.35;5.75;;;16.60;79.30;;;;;;6255610;28;20517;-79
2021/08/21 03:13:35;;;;;;;6.93;5.13;;;16.60;79.10;;;;;;6255406;28;20450;-79
2021/08/21 03:16:37;;;;;;;5.78;5.20;;;16.50;79.40;;;;;;6254956;28;20415;-78
2021/08/21 03:19:39;;;;;;;9.70;5.57;;;16.50;79.10;;;;;;6254874;28;20411;-78
2021/08/21 03:22:41;;;;;;;6.37;5.10;;;16.50;79.50;;;;;;6254746;28;20431;-78
2021/08/21 03:25:43;;;;;;;5.65;5.05;;;16.40;79.30;;;;;;6254134;28;20545;-79
2021/08/21 03:28:46;;;;;;;7.55;5.35;;;16.40;79.20;;;;;;6254153;28;20534;-79
2021/08/21 03:31:48;;;;;;;7.60;5.13;;;16.40;79.50;;;;;;6254770;28;20476;-78
2021/08/21 03:34:50;;;;;;;7.65;5.85;;;16.40;79.40;;;;;;6254769;28;20502;-79
2021/08/21 03:37:52;;;;;;;6.00;4.47;;;16.40;79.40;;;;;;6255427;28;20509;-79
2021/08/21 03:40:53;;;;;;;5.93;5.32;;;16.30;79.30;;;;;;6253991;28;20494;-78
2021/08/21 03:43:57;;;;;;;5.27;4.40;;;16.30;79.10;;;;;;6252892;28;21031;-79
2021/08/21 03:46:59;;;;;;;7.00;4.78;;;16.30;79.50;;;;;;6254120;28;20566;-79
2021/08/21 03:50:01;;;;;;;5.47;4.97;;;16.30;79.70;;;;;;6255083;28;20535;-78
2021/08/21 03:53:03;;;;;;;5.85;4.80;;;16.30;79.50;;;;;;6256244;28;20423;-78
2021/08/21 03:56:05;;;;;;;6.10;4.85;;;16.30;79.60;;;;;;6252149;28;20485;-77
2021/08/21 03:59:08;;;;;;;5.38;4.80;;;16.30;79.80;;;;;;6253470;28;20967;-77
2021/08/21 04:02:10;;;;;;;8.13;5.63;;;16.30;79.70;;;;;;6254661;28;20476;-78
2021/08/21 04:05:12;;;;;;;6.47;5.05;;;16.30;79.70;;;;;;6253397;28;20446;-78
2021/08/21 04:08:14;;;;;;;6.60;5.63;;;16.40;80.00;;;;;;6254187;28;20505;-77
2021/08/21 04:11:16;;;;;;;6.20;5.60;;;16.30;79.70;;;;;;6253540;28;20431;-77
2021/08/21 04:14:19;;;;;;;7.70;4.88;;;16.40;80.10;;;;;;6254253;28;20474;-78
2021/08/21 04:17:21;;;;;;;5.63;5.13;;;16.40;79.80;;;;;;6255856;28;20697;-77
2021/08/21 04:20:23;;;;;;;8.18;5.13;;;16.50;79.80;;;;;;6273966;28;20969;-77
2021/08/21 04:23:25;;;;;;;6.63;4.95;;;16.50;79.60;;;;;;6264695;28;20419;-77
2021/08/21 04:26:27;;;;;;;6.97;4.97;;;16.50;79.50;;;;;;6253926;28;20462;-78
2021/08/21 04:29:30;;;;;;;6.35;4.43;;;16.60;79.00;;;;;;6253118;28;20523;-78
2021/08/21 04:32:32;;;;;;;7.47;4.47;;;16.60;79.00;;;;;;6252261;28;20924;-77
2021/08/21 04:35:34;;;;;;;5.50;4.15;;;16.60;78.80;;;;;;6250087;28;20486;-77
2021/08/21 04:38:36;;;;;;;6.15;4.95;;;16.70;78.80;;;;;;6249927;28;20926;-77
2021/08/21 04:41:38;;;;;;;6.07;4.57;;;16.70;78.20;;;;;;6250444;28;20502;-78
2021/08/21 04:44:41;;;;;;;5.50;4.37;;;16.70;78.20;;;;;;6250391;28;21119;-78
2021/08/21 04:47:43;;;;;;;6.78;5.07;;;16.70;78.50;;;;;;6250039;28;20464;-77
2021/08/21 04:50:45;;;;;;;8.18;5.00;;;16.70;78.20;;;;;;6252782;28;20583;-77
2021/08/21 04:53:46;;;;;;;5.47;4.93;;;16.70;79.20;;;;;;6252501;28;20466;-77
2021/08/21 04:56:48;;;;;;;5.00;4.50;;;16.80;78.50;;;;;;6251408;28;20481;-77
2021/08/21 04:59:52;;;;;;;5.45;4.95;;;16.80;78.40;;;;;;6251512;28;20425;-78
2021/08/21 05:02:57;;;;;;;7.32;5.78;;;16.90;78.20;;;;;;6250527;28;20576;-77
2021/08/21 05:05:59;;;;;;;5.43;4.65;;;17.00;78.00;;;;;;6248071;28;20483;-77
2021/08/21 05:09:01;;;;;;;6.20;4.97;;;17.10;77.80;;;;;;6245745;28;20498;-77
2021/08/21 05:12:03;;;;;;;6.03;4.60;;;17.10;77.70;;;;;;6246663;28;20548;-77
2021/08/21 05:15:07;;;;;;;4.88;4.45;;;17.20;77.60;;;;;;6245634;28;20466;-78
2021/08/21 05:18:11;;;;;;;8.10;4.78;;;17.30;77.50;;;;;;6246604;28;20546;-77
2021/08/21 05:21:24;;;;;;;6.47;4.40;;;17.40;77.10;;;;;;6247097;28;20478;-78
2021/08/21 05:24:26;;;;;;;10.95;5.18;;;17.50;77.40;;;;;;6246294;28;20486;-77
2021/08/21 05:27:28;;;;;;;7.07;5.40;;;17.60;77.10;;;;;;6246000;28;20506;-77
2021/08/21 05:30:31;;;;;;;6.55;5.30;;;17.60;77.50;;;;;;6247138;28;20496;-78
2021/08/21 05:33:34;;;;;;;7.90;4.93;;;17.70;77.80;;;;;;6247665;28;20460;-77
2021/08/21 05:36:36;;;;;;;7.43;5.75;;;17.80;77.40;;;;;;6247135;28;20472;-77
2021/08/21 05:39:37;;;;;;;6.55;5.72;;;17.90;77.20;;;;;;6247937;28;20504;-77
2021/08/21 05:42:39;;;;;;;6.85;4.82;;;17.90;76.90;;;;;;6247552;28;20431;-77
2021/08/21 05:45:42;;;;;;;5.60;4.30;;;18.00;76.80;;;;;;6248590;28;20885;-77
2021/08/21 05:48:44;;;;;;;11.25;5.03;;;18.10;76.60;;;;;;6249080;28;20490;-77
2021/08/21 05:51:46;;;;;;;6.75;4.97;;;18.10;76.50;;;;;;6250216;28;20421;-77
2021/08/21 05:54:48;;;;;;;5.25;4.28;;;18.10;76.50;;;;;;6247462;28;20534;-77
2021/08/21 05:57:50;;;;;;;4.93;4.47;;;18.20;76.50;;;;;;6247990;28;20892;-77
2021/08/21 06:00:53;;;;;;;6.10;5.50;;;18.30;76.60;;;;;;6247669;28;20419;-77
2021/08/21 06:03:55;;;;;;;6.40;4.68;;;18.40;76.20;;;;;;6238558;28;20543;-77
2021/08/21 06:06:57;;;;;;;5.73;4.93;;;18.50;75.90;;;;;;6255668;28;20563;-78
2021/08/21 06:09:58;;;;;;;4.78;4.22;;;18.70;75.80;;;;;;6263314;28;20439;-77
2021/08/21 06:13:00;;;;;;;6.07;4.30;;;18.80;75.30;;;;;;6254955;28;20414;-77
2021/08/21 06:16:04;;;;;;;4.67;4.13;;;18.80;75.30;;;;;;6278057;28;20981;-77
2021/08/21 06:19:06;;;;;;;4.82;4.43;;;19.10;75.30;;;;;;6276621;28;20405;-77
2021/08/21 06:22:08;;;;;;;6.22;4.18;;;19.40;74.80;;;;;;6266955;28;20458;-77
2021/08/21 06:25:11;;;;;;;6.25;4.63;;;19.70;73.80;;;;;;6249004;28;20410;-77
2021/08/21 06:28:12;;;;;;;6.95;4.95;;;20.00;72.90;;;;;;6249338;28;20425;-77
2021/08/21 06:31:16;;;;;;;6.75;5.63;;;20.40;70.80;;;;;;6249097;28;20553;-77
2021/08/21 06:34:18;;;;;;;7.50;5.00;;;20.70;69.40;;;;;;6249423;28;20477;-77
2021/08/21 06:37:20;;;;;;;23.50;21.60;;;20.90;69.00;;;;;;6248854;28;21019;-77
2021/08/21 06:40:22;;;;;;;13.88;9.73;;;21.30;69.30;;;;;;6266514;28;21040;-76
2021/08/21 06:43:24;;;;;;;10.02;6.30;;;21.40;67.60;;;;;;6273738;28;20768;-77
2021/08/21 06:46:27;;;;;;;7.35;4.53;;;21.60;67.00;;;;;;6274019;28;20506;-76
2021/08/21 06:49:29;;;;;;;7.28;4.95;;;21.80;65.00;;;;;;6273574;28;20425;-76
2021/08/21 06:52:30;;;;;;;16.58;5.68;;;21.80;65.90;;;;;;6273429;28;20442;-77
2021/08/21 06:55:32;;;;;;;6.00;4.70;;;22.10;65.70;;;;;;6272733;28;20488;-77
2021/08/21 06:58:34;;;;;;;4.88;4.35;;;22.40;64.10;;;;;;6273920;28;20546;-77
2021/08/21 07:01:38;;;;;;;6.72;4.55;;;22.60;64.20;;;;;;6273112;28;20436;-76
2021/08/21 07:04:41;;;;;;;5.38;4.25;;;22.80;61.90;;;;;;6272834;28;20439;-77
2021/08/21 07:07:43;;;;;;;7.28;4.43;;;23.00;62.20;;;;;;6273851;28;20500;-77
2021/08/21 07:10:45;;;;;;;5.10;4.22;;;23.10;62.20;;;;;;6277778;28;20476;-78
2021/08/21 07:13:47;;;;;;;6.50;5.20;;;23.30;61.20;;;;;;6268564;28;20482;-78
2021/08/21 07:16:50;;;;;;;5.57;4.47;;;23.30;60.60;;;;;;6252621;28;20510;-78
2021/08/21 07:19:52;;;;;;;5.03;4.53;;;23.40;60.60;;;;;;6252581;28;20427;-78
2021/08/21 07:22:53;;;;;;;6.22;5.13;;;23.50;58.70;;;;;;6253112;28;20524;-78
2021/08/21 07:25:55;;;;;;;8.27;4.50;;;23.70;58.70;;;;;;6253097;28;20506;-77
2021/08/21 07:28:57;;;;;;;4.85;4.40;;;23.80;59.10;;;;;;6250245;28;20967;-77
2021/08/21 07:32:00;;;;;;;5.65;4.57;;;24.10;58.50;;;;;;6250411;28;20415;-78
2021/08/21 07:35:03;;;;;;;5.47;4.72;;;24.40;57.70;;;;;;6249888;28;20506;-77
2021/08/21 07:38:05;;;;;;;5.97;3.90;;;24.50;57.50;;;;;;6250781;28;20431;-77
2021/08/21 07:41:07;;;;;;;4.95;4.45;;;24.70;56.90;;;;;;6250536;28;20419;-77
2021/08/21 07:44:09;;;;;;;4.03;3.60;;;24.80;56.10;;;;;;6250556;28;20424;-78
2021/08/21 07:47:12;;;;;;;5.65;4.00;;;24.80;55.90;;;;;;6250594;28;20418;-77
2021/08/21 07:50:14;;;;;;;6.95;4.82;;;25.00;55.70;;;;;;6258535;28;20457;-77
2021/08/21 07:53:16;;;;;;;7.90;4.00;;;25.30;55.40;;;;;;6262270;28;20443;-77
2021/08/21 07:56:18;;;;;;;5.18;3.83;;;25.40;54.40;;;;;;6253196;28;20464;-79
2021/08/21 07:59:20;;;;;;;6.63;4.20;;;25.50;54.40;;;;;;6249392;28;20573;-78
2021/08/21 08:02:23;;;;;;;6.53;4.00;;;25.60;53.80;;;;;;6248338;28;20431;-77
2021/08/21 08:05:25;;;;;;;13.45;4.80;;;25.70;53.10;;;;;;6246464;28;20415;-77
2021/08/21 08:08:27;;;;;;;4.95;4.15;;;25.80;53.10;;;;;;6247095;28;20411;-77
2021/08/21 08:11:29;;;;;;;6.38;3.90;;;25.90;53.20;;;;;;6246865;28;20497;-76
2021/08/21 08:14:31;;;;;;;5.10;4.07;;;25.90;52.70;;;;;;6264756;28;20515;-77
2021/08/21 08:17:34;;;;;;;7.32;4.65;;;26.00;53.00;;;;;;6271537;28;20636;-77
2021/08/21 08:20:36;;;;;;;6.57;4.80;;;26.20;52.70;;;;;;6271202;28;20983;-77
2021/08/21 08:23:38;;;;;;;4.82;4.43;;;26.30;52.90;;;;;;6271080;28;20487;-77
2021/08/21 08:26:39;;;;;;;5.18;4.25;;;26.50;52.30;;;;;;6271047;28;20512;-77
2021/08/21 08:29:41;;;;;;;4.55;4.00;;;26.60;51.80;;;;;;6270188;28;20554;-77
2021/08/21 08:32:45;;;;;;;9.98;5.13;;;26.60;51.60;;;;;;6271374;28;20437;-77
2021/08/21 08:35:46;;;;;;;5.13;4.00;;;26.70;51.50;;;;;;6271277;28;20566;-77
2021/08/21 08:38:49;;;;;;;5.27;3.80;;;27.00;51.50;;;;;;6271619;28;20835;-79
2021/08/21 08:41:51;;;;;;;5.07;4.03;;;27.00;49.70;;;;;;6251058;28;20452;-76
2021/08/21 08:44:53;;;;;;;6.00;4.28;;;27.00;50.00;;;;;;6220304;28;20903;-77
2021/08/21 08:47:58;;;;;;;6.07;4.18;;;27.10;50.10;;;;;;6221154;28;20445;-78
2021/08/21 08:51:01;;;;;;;4.15;3.78;;;27.30;49.60;;;;;;6221207;28;20516;-77
2021/08/21 08:54:03;;;;;;;5.45;4.55;;;27.40;49.90;;;;;;6221805;28;20458;-76
2021/08/21 08:57:05;;;;;;;4.70;4.20;;;27.40;49.30;;;;;;6221061;28;20787;-76
2021/08/21 09:00:12;;;;;;;8.77;4.38;;;27.50;49.50;;;;;;6222253;28;20425;-77
2021/08/21 09:03:21;;;;;;;4.63;3.87;;;27.60;49.80;;;;;;6221572;28;20413;-77
2021/08/21 09:06:35;;;;;;;5.00;4.15;;;27.70;49.20;;;;;;6204873;28;20964;-77
2021/08/21 09:09:37;;;;;;;7.10;4.63;;;27.90;48.80;;;;;;6197496;28;20513;-77
2021/08/21 09:12:39;;;;;;;5.32;3.90;;;27.90;49.40;;;;;;6202124;28;20422;-77
2021/08/21 09:15:42;;;;;;;6.03;3.65;;;28.00;49.50;;;;;;6222109;28;20994;-77
2021/08/21 09:19:02;;;;;;;4.95;4.45;;;28.20;47.90;;;;;;6222391;28;20474;-78
2021/08/21 09:22:06;;;;;;;4.18;3.78;;;28.30;47.80;;;;;;6223323;28;20483;-77
2021/08/21 09:25:11;;;;;;;6.20;4.40;;;28.40;46.90;;;;;;6220533;28;20417;-77
2021/08/21 09:28:17;;;;;;;6.47;3.83;;;28.60;47.30;;;;;;6221792;28;20417;-77
2021/08/21 09:31:20;;;;;;;4.97;4.40;;;28.70;46.40;;;;;;6219042;28;20782;-77
2021/08/21 09:34:24;;;;;;;5.60;4.07;;;28.80;45.40;;;;;;6221742;28;20436;-78
2021/08/21 09:37:25;;;;;;;8.77;4.20;;;28.80;46.00;;;;;;6221102;28;20527;-77
2021/08/21 09:40:30;;;;;;;4.65;4.05;;;29.00;46.10;;;;;;6221026;28;20453;-77
2021/08/21 09:43:34;;;;;;;7.80;3.90;;;29.10;44.70;;;;;;6207730;28;20481;-77
2021/08/21 09:46:37;;;;;;;6.73;4.70;;;29.10;45.10;;;;;;6195646;28;20537;-77
2021/08/21 09:49:41;;;;;;;4.13;3.67;;;29.20;45.00;;;;;;6195285;28;20931;-77
2021/08/21 09:52:45;;;;;;;8.68;3.95;;;29.20;45.40;;;;;;6195418;28;21332;-77
2021/08/21 09:55:48;;;;;;;5.22;4.05;;;29.30;44.90;;;;;;6196197;28;20862;-77
2021/08/21 09:58:53;;;;;;;5.00;3.87;;;29.40;44.20;;;;;;6196052;28;20623;-78
2021/08/21 10:01:55;;;;;;;7.63;3.88;;;29.40;45.00;;;;;;6197315;28;20461;-77
2021/08/21 10:04:59;;;;;;;4.88;3.97;;;29.40;45.10;;;;;;6197530;28;20418;-77
2021/08/21 10:08:04;;;;;;;5.68;3.88;;;29.50;44.10;;;;;;6198369;28;20450;-77
2021/08/21 10:11:06;;;;;;;3.75;3.38;;;29.60;43.80;;;;;;6197451;28;20434;-77
2021/08/21 10:14:08;;;;;;;6.68;3.55;;;29.70;42.50;;;;;;6226153;28;20512;-78
2021/08/21 10:17:11;;;;;;;4.65;3.65;;;29.90;43.00;;;;;;6245741;28;20448;-77
2021/08/21 10:20:14;;;;;;;3.90;3.17;;;30.20;42.90;;;;;;6245918;28;20442;-77
2021/08/21 10:23:23;;;;;;;7.03;3.88;;;30.40;41.10;;;;;;6246170;28;20437;-78
2021/08/21 10:26:32;;;;;;;5.07;3.47;;;30.50;40.60;;;;;;6244680;28;20919;-77
2021/08/21 10:29:34;;;;;;;5.00;3.83;;;30.70;41.20;;;;;;6244302;28;20501;-77
2021/08/21 10:32:39;;;;;;;4.15;3.65;;;30.80;40.80;;;;;;6244275;28;20415;-77
2021/08/21 10:35:46;;;;;;;4.18;3.33;;;30.80;41.30;;;;;;6244236;28;20426;-77
2021/08/21 10:38:48;;;;;;;5.53;3.40;;;31.00;40.60;;;;;;6244310;28;20466;-77
2021/08/21 10:41:51;;;;;;;5.65;3.80;;;31.20;40.40;;;;;;6245047;28;20454;-77
2021/08/21 10:44:53;;;;;;;6.70;3.20;;;31.40;39.80;;;;;;6212713;28;20469;-76
2021/08/21 10:47:55;;;;;;;6.15;3.50;;;31.70;39.70;;;;;;6195132;28;20908;-77
2021/08/21 10:50:58;;;;;;;8.13;3.70;;;31.80;39.40;;;;;;6195340;28;20451;-77
2021/08/21 10:54:00;;;;;;;5.18;3.80;;;32.00;39.00;;;;;;6197690;28;20521;-77
2021/08/21 10:57:29;;;;;;;4.05;3.38;;;32.10;38.40;;;;;;6199719;28;20425;-77
2021/08/21 11:00:45;;;;;;;6.65;3.95;;;32.20;39.00;;;;;;6199826;28;20426;-77
2021/08/21 11:03:49;;;;;;;4.97;3.83;;;32.30;38.50;;;;;;6199323;28;20940;-75
2021/08/21 11:06:52;;;;;;;4.25;3.33;;;32.40;38.40;;;;;;6200129;28;20430;-76
2021/08/21 11:10:13;;;;;;;7.55;3.55;;;32.40;38.10;;;;;;6203618;28;20434;-78
2021/08/21 11:13:49;;;;;;;4.93;3.95;;;32.50;38.20;;;;;;6219887;28;20415;-79
2021/08/21 11:16:54;;;;;;;5.00;3.80;;;32.50;38.40;;;;;;6252351;28;20451;-79
2021/08/21 11:19:55;;;;;;;4.90;3.60;;;32.60;38.10;;;;;;6259093;28;20392;-77
2021/08/21 11:23:20;;;;;;;6.13;3.33;;;32.60;38.10;;;;;;6272949;28;20427;-76
2021/08/21 11:26:23;;;;;;;6.63;3.90;;;32.30;38.70;;;;;;6258161;28;20909;-79
2021/08/21 11:29:25;;;;;;;4.15;3.20;;;32.20;39.20;;;;;;6237613;28;20779;-78
2021/08/21 11:32:27;;;;;;;4.88;3.72;;;32.40;39.10;;;;;;6228313;28;20499;-77
2021/08/21 11:35:31;;;;;;;5.70;3.53;;;32.60;38.60;;;;;;6228257;28;20882;-78
2021/08/21 11:38:36;;;;;;;3.63;3.28;;;32.80;38.30;;;;;;6228856;28;20571;-77
2021/08/21 11:41:38;;;;;;;3.87;3.37;;;33.00;38.50;;;;;;6227809;28;20452;-78
2021/08/21 11:44:40;;;;;;;6.03;3.25;;;33.10;37.80;;;;;;6222936;28;20429;-78
2021/08/21 11:47:42;;;;;;;4.07;3.42;;;33.20;37.80;;;;;;6213205;28;20419;-78
2021/08/21 11:50:45;;;;;;;7.45;3.50;;;33.40;38.10;;;;;;6227042;28;20472;-79
2021/08/21 11:53:49;;;;;;;3.72;3.30;;;33.50;37.70;;;;;;6227570;28;20519;-78
2021/08/21 11:56:57;;;;;;;4.35;3.28;;;33.50;37.40;;;;;;6222823;28;20563;-77
2021/08/21 12:00:12;;;;;;;4.22;2.95;;;33.50;37.40;;;;;;6227432;28;20412;-78
2021/08/21 12:03:15;;;;;;;9.20;3.75;;;33.60;37.20;;;;;;6225859;28;20552;-77
2021/08/21 12:06:21;;;;;;;4.53;3.30;;;33.60;36.90;;;;;;6222348;28;20488;-78
2021/08/21 12:09:25;;;;;;;4.57;3.37;;;33.80;36.80;;;;;;6224247;28;20412;-78
2021/08/21 12:12:32;;;;;;;5.27;3.77;;;34.00;36.80;;;;;;6227517;28;20421;-78
2021/08/21 12:15:33;;;;;;;7.75;3.70;;;34.10;36.90;;;;;;6248916;28;20419;-77
2021/08/21 12:18:37;;;;;;;5.57;3.35;;;34.10;36.20;;;;;;6246805;28;20879;-77
2021/08/21 12:21:40;;;;;;;3.78;3.40;;;34.10;36.20;;;;;;6246425;28;20545;-77
2021/08/21 12:24:53;;;;;;;4.40;3.30;;;34.10;36.30;;;;;;6246152;28;20984;-77
2021/08/21 12:28:10;;;;;;;4.78;3.40;;;34.20;35.50;;;;;;6246750;28;20442;-78
2021/08/21 12:31:14;;;;;;;4.82;3.30;;;34.30;35.10;;;;;;6250247;28;20489;-80
2021/08/21 12:34:17;;;;;;;4.72;3.22;;;34.40;35.10;;;;;;6250351;28;20765;-78
2021/08/21 12:37:22;;;;;;;4.80;2.97;;;34.50;35.90;;;;;;6250541;28;20566;-78
2021/08/21 12:40:25;;;;;;;4.95;3.17;;;34.50;35.40;;;;;;6250123;28;20423;-78
2021/08/21 12:43:29;;;;;;;6.20;3.75;;;34.40;35.40;;;;;;6250227;28;20894;-79
2021/08/21 12:46:31;;;;;;;4.60;3.78;;;34.50;35.60;;;;;;6224624;28;20502;-80
2021/08/21 12:49:34;;;;;;;10.40;3.90;;;34.60;35.20;;;;;;6200031;28;20447;-79
2021/08/21 12:52:36;;;;;;;4.47;4.05;;;34.50;35.20;;;;;;6200663;28;20599;-77
2021/08/21 12:55:39;;;;;;;4.68;3.35;;;34.60;35.80;;;;;;6199676;28;20501;-79
2021/08/21 12:58:41;;;;;;;3.90;3.50;;;34.50;35.70;;;;;;6201518;28;20489;-79
2021/08/21 13:01:44;;;;;;;7.73;4.20;;;34.50;35.90;;;;;;6200846;28;20421;-79
2021/08/21 13:05:02;;;;;;;7.50;3.83;;;34.50;35.40;;;;;;6200078;28;20569;-79
2021/08/21 13:08:07;;;;;;;5.07;3.93;;;34.50;35.70;;;;;;6200910;28;20418;-78
2021/08/21 13:11:10;;;;;;;5.82;4.00;;;34.70;36.20;;;;;;6201186;28;20452;-79
2021/08/21 13:14:12;;;;;;;4.40;3.50;;;34.80;35.60;;;;;;6231284;28;20489;-79
2021/08/21 13:17:14;;;;;;;9.02;3.90;;;34.90;35.50;;;;;;6248227;28;21006;-79
2021/08/21 13:20:17;;;;;;;11.48;4.53;;;34.60;36.70;;;;;;6249584;28;20897;-79
2021/08/21 13:23:19;;;;;;;4.40;3.63;;;34.50;36.40;;;;;;6250119;28;20410;-78
2021/08/21 13:26:22;;;;;;;5.15;3.95;;;34.60;36.90;;;;;;6250367;28;20589;-78
2021/08/21 13:29:25;;;;;;;5.30;3.88;;;34.60;36.00;;;;;;6249958;28;20558;-80
2021/08/21 13:32:27;;;;;;;4.28;3.65;;;34.40;36.10;;;;;;6250039;28;20423;-80
2021/08/21 13:35:29;;;;;;;7.43;4.30;;;34.50;36.10;;;;;;6216124;28;20513;-79
2021/08/21 13:38:30;;;;;;;4.30;3.90;;;34.50;36.40;;;;;;6200153;28;20540;-79
2021/08/21 13:41:34;;;;;;;7.30;3.88;;;34.30;36.90;;;;;;6201003;28;20449;-78
2021/08/21 13:44:36;;;;;;;4.63;4.22;;;34.10;36.50;;;;;;6200138;28;20530;-78
2021/08/21 13:47:37;;;;;;;6.78;3.75;;;34.10;36.90;;;;;;6199997;28;20422;-79
2021/08/21 13:50:39;;;;;;;3.95;3.47;;;34.30;36.80;;;;;;6207976;28;21018;-80
2021/08/21 13:53:41;;;;;;;4.47;3.35;;;34.20;37.20;;;;;;6226055;28;20522;-79
2021/08/21 13:56:44;;;;;;;4.53;3.28;;;34.30;35.70;;;;;;6225229;28;20440;-79
2021/08/21 13:59:50;;;;;;;5.65;3.72;;;34.50;35.70;;;;;;6226086;28;21244;-78
2021/08/21 14:02:52;;;;;;;4.25;3.85;;;34.30;36.30;;;;;;6225609;28;20435;-80
2021/08/21 14:05:53;;;;;;;5.43;3.70;;;34.20;36.70;;;;;;6226164;28;20440;-79
2021/08/21 14:08:55;;;;;;;7.93;3.95;;;34.20;37.20;;;;;;6225898;28;20816;-79
2021/08/21 14:11:59;;;;;;;3.90;3.47;;;34.30;36.70;;;;;;6226230;28;20954;-78
2021/08/21 14:15:02;;;;;;;4.70;3.60;;;34.30;36.30;;;;;;6244992;28;20514;-77
2021/08/21 14:18:05;;;;;;;5.17;3.33;;;34.50;36.40;;;;;;6250200;28;20431;-79
2021/08/21 14:21:07;;;;;;;4.70;3.72;;;34.70;35.10;;;;;;6250092;28;20415;-79
2021/08/21 14:24:09;;;;;;;4.97;2.75;;;34.80;35.00;;;;;;6249802;28;20452;-78
2021/08/21 14:27:13;;;;;;;4.60;3.53;;;34.60;35.60;;;;;;6250458;28;20482;-79
2021/08/21 14:30:15;;;;;;;3.63;3.33;;;34.70;35.30;;;;;;6254965;28;20461;-79
2021/08/21 14:33:17;;;;;;;7.40;3.63;;;34.70;36.30;;;;;;6254590;28;20478;-79
2021/08/21 14:36:20;;;;;;;5.93;3.33;;;34.80;36.50;;;;;;6253560;28;20450;-79
2021/08/21 14:39:22;;;;;;;5.80;3.22;;;34.80;35.70;;;;;;6254213;28;20529;-79
2021/08/21 14:42:25;;;;;;;9.70;4.38;;;34.70;35.40;;;;;;6254304;28;20435;-78
2021/08/21 14:45:27;;;;;;;6.80;3.80;;;34.70;35.80;;;;;;6252865;28;20426;-79
2021/08/21 14:48:29;;;;;;;4.45;3.20;;;34.70;36.50;;;;;;6229077;28;20457;-78
2021/08/21 14:51:31;;;;;;;6.18;3.85;;;34.60;36.50;;;;;;6204431;28;20457;-79
2021/08/21 14:54:32;;;;;;;4.17;3.67;;;34.30;36.40;;;;;;6228708;28;20432;-79
2021/08/21 14:57:36;;;;;;;9.95;4.32;;;34.20;36.90;;;;;;6229296;28;20420;-78
2021/08/21 15:00:38;;;;;;;5.88;3.63;;;34.10;36.90;;;;;;6228777;28;20496;-79
2021/08/21 15:03:42;;;;;;;3.60;3.30;;;34.10;36.60;;;;;;6237278;28;20480;-79
2021/08/21 15:06:43;;;;;;;4.10;3.55;;;34.20;36.40;;;;;;6228234;28;20924;-79
2021/08/21 15:09:45;;;;;;;4.50;3.53;;;34.30;35.80;;;;;;6228420;28;20902;-79
2021/08/21 15:12:53;;;;;;;5.70;3.85;;;34.30;35.80;;;;;;6231369;28;20653;-78
2021/08/21 15:15:55;;;;;;;4.28;3.80;;;34.30;35.90;;;;;;6251802;28;20419;-78
2021/08/21 15:18:58;;;;;;;5.67;3.83;;;34.40;35.60;;;;;;6252521;28;20675;-77
2021/08/21 15:22:00;;;;;;;4.57;3.30;;;34.40;36.70;;;;;;6252242;28;20513;-78
2021/08/21 15:25:01;;;;;;;3.95;3.55;;;34.30;35.70;;;;;;6251054;28;20584;-79
2021/08/21 15:28:06;;;;;;;4.13;3.78;;;34.30;36.00;;;;;;6252094;28;20481;-78
2021/08/21 15:31:08;;;;;;;7.80;4.15;;;34.20;35.80;;;;;;6251638;28;20928;-77
2021/08/21 15:34:11;;;;;;;6.30;4.00;;;34.00;36.10;;;;;;6252153;28;20434;-78
2021/08/21 15:37:14;;;;;;;5.55;3.63;;;33.90;36.80;;;;;;6250304;28;20968;-78
2021/08/21 15:40:15;;;;;;;9.10;4.23;;;33.80;37.10;;;;;;6250174;28;20437;-78
2021/08/21 15:43:19;;;;;;;11.13;4.20;;;33.50;36.90;;;;;;6251816;28;20495;-79
2021/08/21 15:46:21;;;;;;;14.20;4.95;;;33.20;37.70;;;;;;6253106;28;20435;-77
2021/08/21 15:49:22;;;;;;;5.40;4.25;;;33.00;38.40;;;;;;6229594;28;20513;-78
2021/08/21 15:52:24;;;;;;;4.18;3.58;;;32.70;38.80;;;;;;6202927;28;20942;-78